sensor_id;sensor_type;location;lat;lon;timestamp;P1;durP1;ratioP1;P2;durP2;ratioP2
23302;SDS011;11820;48.738;9.092;2023-04-28T00:02:12;5.27;;;3.87;;
23302;SDS011;11820;48.738;9.092;2023-04-28T00:04:37;4.03;;;3.37;;
23302;SDS011;11820;48.738;9.092;2023-04-28T00:07:03;4.17;;;3.20;;
23302;SDS011;11820;48.738;9.092;2023-04-28T00:09:28;8.07;;;4.07;;
23302;SDS011;11820;48.738;9.092;2023-04-28T00:11:53;4.53;;;3.70;;
23302;SDS011;11820;48.738;9.092;2023-04-28T00:14:19;5.90;;;3.33;;
23302;SDS011;11820;48.738;9.092;2023-04-28T00:16:44;4.40;;;3.43;;
23302;SDS011;11820;48.738;9.092;2023-04-28T00:19:09;6.33;;;3.60;;
23302;SDS011;11820;48.738;9.092;2023-04-28T00:21:35;6.40;;;3.53;;
23302;SDS011;11820;48.738;9.092;2023-04-28T00:24:00;6.50;;;4.07;;
23302;SDS011;11820;48.738;9.092;2023-04-28T00:26:25;4.57;;;3.30;;
23302;SDS011;11820;48.738;9.092;2023-04-28T00:28:51;4.67;;;3.93;;
23302;SDS011;11820;48.738;9.092;2023-04-28T00:31:16;5.60;;;3.83;;
23302;SDS011;11820;48.738;9.092;2023-04-28T00:33:42;8.23;;;3.70;;
23302;SDS011;11820;48.738;9.092;2023-04-28T00:36:08;4.80;;;4.00;;
23302;SDS011;11820;48.738;9.092;2023-04-28T00:38:34;5.00;;;4.03;;
23302;SDS011;11820;48.738;9.092;2023-04-28T00:40:59;6.90;;;4.07;;
23302;SDS011;11820;48.738;9.092;2023-04-28T00:43:25;8.30;;;3.40;;
23302;SDS011;11820;48.738;9.092;2023-04-28T00:45:50;6.40;;;3.33;;
23302;SDS011;11820;48.738;9.092;2023-04-28T00:48:17;6.17;;;3.50;;
23302;SDS011;11820;48.738;9.092;2023-04-28T00:50:43;6.13;;;3.50;;
23302;SDS011;11820;48.738;9.092;2023-04-28T00:53:10;3.83;;;3.10;;
23302;SDS011;11820;48.738;9.092;2023-04-28T00:55:36;3.37;;;3.07;;
23302;SDS011;11820;48.738;9.092;2023-04-28T00:58:02;5.93;;;3.70;;
23302;SDS011;11820;48.738;9.092;2023-04-28T01:00:28;5.33;;;3.37;;
23302;SDS011;11820;48.738;9.092;2023-04-28T01:02:54;5.37;;;3.10;;
23302;SDS011;11820;48.738;9.092;2023-04-28T01:05:20;4.50;;;3.20;;
23302;SDS011;11820;48.738;9.092;2023-04-28T01:07:49;5.40;;;3.07;;
23302;SDS011;11820;48.738;9.092;2023-04-28T01:10:15;4.40;;;3.33;;
23302;SDS011;11820;48.738;9.092;2023-04-28T01:12:41;4.83;;;3.30;;
23302;SDS011;11820;48.738;9.092;2023-04-28T01:15:06;4.03;;;3.10;;
23302;SDS011;11820;48.738;9.092;2023-04-28T01:17:39;3.70;;;3.33;;
23302;SDS011;11820;48.738;9.092;2023-04-28T01:20:05;3.00;;;2.80;;
23302;SDS011;11820;48.738;9.092;2023-04-28T01:22:30;4.83;;;3.00;;
23302;SDS011;11820;48.738;9.092;2023-04-28T01:24:56;4.83;;;3.63;;
23302;SDS011;11820;48.738;9.092;2023-04-28T01:27:23;4.77;;;3.30;;
23302;SDS011;11820;48.738;9.092;2023-04-28T01:29:48;5.10;;;3.00;;
23302;SDS011;11820;48.738;9.092;2023-04-28T01:32:14;7.10;;;3.13;;
23302;SDS011;11820;48.738;9.092;2023-04-28T01:34:39;5.40;;;3.90;;
23302;SDS011;11820;48.738;9.092;2023-04-28T01:37:04;3.50;;;2.90;;
23302;SDS011;11820;48.738;9.092;2023-04-28T01:39:30;4.40;;;2.60;;
23302;SDS011;11820;48.738;9.092;2023-04-28T01:41:55;3.10;;;2.23;;
23302;SDS011;11820;48.738;9.092;2023-04-28T01:44:20;7.50;;;3.90;;
23302;SDS011;11820;48.738;9.092;2023-04-28T01:46:45;8.60;;;4.37;;
23302;SDS011;11820;48.738;9.092;2023-04-28T01:49:11;11.93;;;5.60;;
23302;SDS011;11820;48.738;9.092;2023-04-28T01:51:36;7.97;;;4.93;;
23302;SDS011;11820;48.738;9.092;2023-04-28T01:54:01;5.73;;;3.70;;
23302;SDS011;11820;48.738;9.092;2023-04-28T01:56:27;4.43;;;3.10;;
23302;SDS011;11820;48.738;9.092;2023-04-28T01:58:52;6.63;;;3.80;;
23302;SDS011;11820;48.738;9.092;2023-04-28T02:01:17;8.30;;;3.47;;
23302;SDS011;11820;48.738;9.092;2023-04-28T02:03:43;3.80;;;3.03;;
23302;SDS011;11820;48.738;9.092;2023-04-28T02:06:08;3.27;;;2.30;;
23302;SDS011;11820;48.738;9.092;2023-04-28T02:08:34;5.13;;;2.27;;
23302;SDS011;11820;48.738;9.092;2023-04-28T02:10:59;3.30;;;2.37;;
23302;SDS011;11820;48.738;9.092;2023-04-28T02:13:25;2.47;;;1.93;;
23302;SDS011;11820;48.738;9.092;2023-04-28T02:15:51;2.50;;;2.23;;
23302;SDS011;11820;48.738;9.092;2023-04-28T02:18:16;3.47;;;2.33;;
23302;SDS011;11820;48.738;9.092;2023-04-28T02:20:41;2.50;;;2.27;;
23302;SDS011;11820;48.738;9.092;2023-04-28T02:23:07;1.87;;;1.70;;
23302;SDS011;11820;48.738;9.092;2023-04-28T02:25:32;3.27;;;2.03;;
23302;SDS011;11820;48.738;9.092;2023-04-28T02:27:57;4.03;;;2.10;;
23302;SDS011;11820;48.738;9.092;2023-04-28T02:30:23;3.07;;;2.00;;
23302;SDS011;11820;48.738;9.092;2023-04-28T02:32:48;2.13;;;1.93;;
23302;SDS011;11820;48.738;9.092;2023-04-28T02:35:14;2.90;;;2.10;;
23302;SDS011;11820;48.738;9.092;2023-04-28T02:37:39;4.73;;;2.20;;
23302;SDS011;11820;48.738;9.092;2023-04-28T02:40:04;2.17;;;1.97;;
23302;SDS011;11820;48.738;9.092;2023-04-28T02:42:31;2.30;;;1.47;;
23302;SDS011;11820;48.738;9.092;2023-04-28T02:44:56;2.30;;;1.90;;
23302;SDS011;11820;48.738;9.092;2023-04-28T02:47:21;4.80;;;2.20;;
23302;SDS011;11820;48.738;9.092;2023-04-28T02:49:46;2.20;;;2.00;;
23302;SDS011;11820;48.738;9.092;2023-04-28T02:52:12;4.40;;;1.90;;
23302;SDS011;11820;48.738;9.092;2023-04-28T02:54:37;2.77;;;1.97;;
23302;SDS011;11820;48.738;9.092;2023-04-28T02:57:02;3.57;;;2.10;;
23302;SDS011;11820;48.738;9.092;2023-04-28T02:59:28;2.17;;;1.97;;
23302;SDS011;11820;48.738;9.092;2023-04-28T03:01:54;3.40;;;2.33;;
23302;SDS011;11820;48.738;9.092;2023-04-28T03:04:20;3.27;;;1.90;;
23302;SDS011;11820;48.738;9.092;2023-04-28T03:06:46;2.33;;;2.03;;
23302;SDS011;11820;48.738;9.092;2023-04-28T03:09:11;2.83;;;2.13;;
23302;SDS011;11820;48.738;9.092;2023-04-28T03:11:37;3.13;;;2.30;;
23302;SDS011;11820;48.738;9.092;2023-04-28T03:14:03;2.97;;;2.30;;
23302;SDS011;11820;48.738;9.092;2023-04-28T03:16:28;3.80;;;2.30;;
23302;SDS011;11820;48.738;9.092;2023-04-28T03:18:53;2.73;;;2.20;;
23302;SDS011;11820;48.738;9.092;2023-04-28T03:21:19;4.60;;;2.57;;
23302;SDS011;11820;48.738;9.092;2023-04-28T03:23:44;2.80;;;2.50;;
23302;SDS011;11820;48.738;9.092;2023-04-28T03:26:10;4.20;;;2.60;;
23302;SDS011;11820;48.738;9.092;2023-04-28T03:28:35;3.07;;;2.40;;
23302;SDS011;11820;48.738;9.092;2023-04-28T03:31:01;3.00;;;2.23;;
23302;SDS011;11820;48.738;9.092;2023-04-28T03:33:26;3.17;;;2.73;;
23302;SDS011;11820;48.738;9.092;2023-04-28T03:35:52;2.30;;;2.10;;
23302;SDS011;11820;48.738;9.092;2023-04-28T03:38:18;2.80;;;2.30;;
23302;SDS011;11820;48.738;9.092;2023-04-28T03:40:43;3.27;;;2.30;;
23302;SDS011;11820;48.738;9.092;2023-04-28T03:43:09;3.43;;;2.40;;
23302;SDS011;11820;48.738;9.092;2023-04-28T03:45:35;3.17;;;2.40;;
23302;SDS011;11820;48.738;9.092;2023-04-28T03:48:00;4.10;;;2.27;;
23302;SDS011;11820;48.738;9.092;2023-04-28T03:50:25;3.80;;;2.70;;
23302;SDS011;11820;48.738;9.092;2023-04-28T03:52:51;2.57;;;2.27;;
23302;SDS011;11820;48.738;9.092;2023-04-28T03:55:16;3.60;;;2.30;;
23302;SDS011;11820;48.738;9.092;2023-04-28T03:57:41;4.50;;;2.57;;
23302;SDS011;11820;48.738;9.092;2023-04-28T04:00:07;4.13;;;2.70;;
23302;SDS011;11820;48.738;9.092;2023-04-28T04:02:34;3.73;;;2.57;;
23302;SDS011;11820;48.738;9.092;2023-04-28T04:04:59;5.97;;;2.30;;
23302;SDS011;11820;48.738;9.092;2023-04-28T04:07:24;3.40;;;2.47;;
23302;SDS011;11820;48.738;9.092;2023-04-28T04:09:50;2.60;;;2.40;;
23302;SDS011;11820;48.738;9.092;2023-04-28T04:12:15;2.90;;;2.33;;
23302;SDS011;11820;48.738;9.092;2023-04-28T04:14:41;4.77;;;2.97;;
23302;SDS011;11820;48.738;9.092;2023-04-28T04:17:06;3.00;;;2.70;;
23302;SDS011;11820;48.738;9.092;2023-04-28T04:19:31;4.10;;;2.93;;
23302;SDS011;11820;48.738;9.092;2023-04-28T04:21:57;4.13;;;3.00;;
23302;SDS011;11820;48.738;9.092;2023-04-28T04:24:22;2.43;;;2.17;;
23302;SDS011;11820;48.738;9.092;2023-04-28T04:26:47;6.33;;;3.10;;
23302;SDS011;11820;48.738;9.092;2023-04-28T04:29:13;4.00;;;2.60;;
23302;SDS011;11820;48.738;9.092;2023-04-28T04:31:38;4.17;;;2.93;;
23302;SDS011;11820;48.738;9.092;2023-04-28T04:34:03;5.90;;;2.73;;
23302;SDS011;11820;48.738;9.092;2023-04-28T04:36:29;4.07;;;2.73;;
23302;SDS011;11820;48.738;9.092;2023-04-28T04:38:54;5.07;;;2.70;;
23302;SDS011;11820;48.738;9.092;2023-04-28T04:41:19;3.77;;;2.77;;
23302;SDS011;11820;48.738;9.092;2023-04-28T04:43:45;4.07;;;2.40;;
23302;SDS011;11820;48.738;9.092;2023-04-28T04:46:11;3.90;;;3.10;;
23302;SDS011;11820;48.738;9.092;2023-04-28T04:48:37;3.87;;;2.53;;
23302;SDS011;11820;48.738;9.092;2023-04-28T04:51:02;3.90;;;2.50;;
23302;SDS011;11820;48.738;9.092;2023-04-28T04:53:28;3.63;;;2.40;;
23302;SDS011;11820;48.738;9.092;2023-04-28T04:55:53;4.80;;;2.20;;
23302;SDS011;11820;48.738;9.092;2023-04-28T04:58:18;3.87;;;2.70;;
23302;SDS011;11820;48.738;9.092;2023-04-28T05:00:44;4.00;;;2.87;;
23302;SDS011;11820;48.738;9.092;2023-04-28T05:03:10;3.90;;;2.70;;
23302;SDS011;11820;48.738;9.092;2023-04-28T05:05:36;4.67;;;2.83;;
23302;SDS011;11820;48.738;9.092;2023-04-28T05:08:01;7.97;;;3.10;;
23302;SDS011;11820;48.738;9.092;2023-04-28T05:10:27;3.90;;;3.17;;
23302;SDS011;11820;48.738;9.092;2023-04-28T05:12:53;9.73;;;3.37;;
23302;SDS011;11820;48.738;9.092;2023-04-28T05:15:18;3.80;;;3.40;;
23302;SDS011;11820;48.738;9.092;2023-04-28T05:17:43;9.50;;;3.53;;
23302;SDS011;11820;48.738;9.092;2023-04-28T05:20:09;3.90;;;2.93;;
23302;SDS011;11820;48.738;9.092;2023-04-28T05:22:34;7.13;;;3.80;;
23302;SDS011;11820;48.738;9.092;2023-04-28T05:25:00;4.90;;;3.70;;
23302;SDS011;11820;48.738;9.092;2023-04-28T05:27:25;6.67;;;3.47;;
23302;SDS011;11820;48.738;9.092;2023-04-28T05:29:50;4.60;;;3.67;;
23302;SDS011;11820;48.738;9.092;2023-04-28T05:32:16;5.33;;;3.53;;
23302;SDS011;11820;48.738;9.092;2023-04-28T05:34:41;3.93;;;3.53;;
23302;SDS011;11820;48.738;9.092;2023-04-28T05:37:06;4.93;;;3.43;;
23302;SDS011;11820;48.738;9.092;2023-04-28T05:39:31;4.90;;;3.97;;
23302;SDS011;11820;48.738;9.092;2023-04-28T05:41:57;5.47;;;3.60;;
23302;SDS011;11820;48.738;9.092;2023-04-28T05:44:25;4.17;;;3.00;;
23302;SDS011;11820;48.738;9.092;2023-04-28T05:46:50;4.83;;;3.70;;
23302;SDS011;11820;48.738;9.092;2023-04-28T05:49:16;4.20;;;3.33;;
23302;SDS011;11820;48.738;9.092;2023-04-28T05:51:41;5.97;;;3.57;;
23302;SDS011;11820;48.738;9.092;2023-04-28T05:54:06;4.30;;;3.77;;
23302;SDS011;11820;48.738;9.092;2023-04-28T05:56:32;4.57;;;3.53;;
23302;SDS011;11820;48.738;9.092;2023-04-28T05:58:58;3.47;;;3.17;;
23302;SDS011;11820;48.738;9.092;2023-04-28T06:01:24;4.93;;;3.60;;
23302;SDS011;11820;48.738;9.092;2023-04-28T06:03:50;3.63;;;3.20;;
23302;SDS011;11820;48.738;9.092;2023-04-28T06:06:17;4.60;;;4.03;;
23302;SDS011;11820;48.738;9.092;2023-04-28T06:08:42;4.43;;;4.03;;
23302;SDS011;11820;48.738;9.092;2023-04-28T06:11:07;5.80;;;4.20;;
23302;SDS011;11820;48.738;9.092;2023-04-28T06:13:33;6.57;;;4.10;;
23302;SDS011;11820;48.738;9.092;2023-04-28T06:15:58;5.70;;;3.57;;
23302;SDS011;11820;48.738;9.092;2023-04-28T06:18:23;4.37;;;3.97;;
23302;SDS011;11820;48.738;9.092;2023-04-28T06:20:49;4.87;;;3.67;;
23302;SDS011;11820;48.738;9.092;2023-04-28T06:23:14;5.17;;;3.90;;
23302;SDS011;11820;48.738;9.092;2023-04-28T06:25:40;5.10;;;3.63;;
23302;SDS011;11820;48.738;9.092;2023-04-28T06:28:05;4.77;;;3.23;;
23302;SDS011;11820;48.738;9.092;2023-04-28T06:30:32;8.47;;;4.07;;
23302;SDS011;11820;48.738;9.092;2023-04-28T06:32:58;5.03;;;3.97;;
23302;SDS011;11820;48.738;9.092;2023-04-28T06:35:23;4.97;;;3.60;;
23302;SDS011;11820;48.738;9.092;2023-04-28T06:37:49;4.37;;;3.80;;
23302;SDS011;11820;48.738;9.092;2023-04-28T06:40:14;6.07;;;3.50;;
23302;SDS011;11820;48.738;9.092;2023-04-28T06:42:40;3.87;;;3.47;;
23302;SDS011;11820;48.738;9.092;2023-04-28T06:45:05;4.23;;;3.50;;
23302;SDS011;11820;48.738;9.092;2023-04-28T06:47:31;5.23;;;3.57;;
23302;SDS011;11820;48.738;9.092;2023-04-28T06:49:56;4.83;;;3.60;;
23302;SDS011;11820;48.738;9.092;2023-04-28T06:52:21;4.97;;;3.80;;
23302;SDS011;11820;48.738;9.092;2023-04-28T06:54:47;3.80;;;3.37;;
23302;SDS011;11820;48.738;9.092;2023-04-28T06:57:13;4.07;;;3.53;;
23302;SDS011;11820;48.738;9.092;2023-04-28T06:59:38;5.07;;;3.43;;
23302;SDS011;11820;48.738;9.092;2023-04-28T07:02:04;5.57;;;3.40;;
23302;SDS011;11820;48.738;9.092;2023-04-28T07:04:29;5.20;;;3.37;;
23302;SDS011;11820;48.738;9.092;2023-04-28T07:06:55;4.83;;;3.47;;
23302;SDS011;11820;48.738;9.092;2023-04-28T07:09:20;4.23;;;3.30;;
23302;SDS011;11820;48.738;9.092;2023-04-28T07:11:45;6.50;;;3.33;;
23302;SDS011;11820;48.738;9.092;2023-04-28T07:14:11;4.70;;;3.17;;
23302;SDS011;11820;48.738;9.092;2023-04-28T07:16:36;3.23;;;2.93;;
23302;SDS011;11820;48.738;9.092;2023-04-28T07:19:01;4.50;;;3.00;;
23302;SDS011;11820;48.738;9.092;2023-04-28T07:21:27;4.50;;;3.47;;
23302;SDS011;11820;48.738;9.092;2023-04-28T07:23:52;4.33;;;3.33;;
23302;SDS011;11820;48.738;9.092;2023-04-28T07:26:21;3.43;;;3.13;;
23302;SDS011;11820;48.738;9.092;2023-04-28T07:28:49;5.97;;;3.80;;
23302;SDS011;11820;48.738;9.092;2023-04-28T07:31:14;3.27;;;2.93;;
23302;SDS011;11820;48.738;9.092;2023-04-28T07:33:39;3.97;;;3.60;;
23302;SDS011;11820;48.738;9.092;2023-04-28T07:36:05;3.77;;;3.33;;
23302;SDS011;11820;48.738;9.092;2023-04-28T07:38:32;4.93;;;3.20;;
23302;SDS011;11820;48.738;9.092;2023-04-28T07:40:58;4.57;;;3.60;;
23302;SDS011;11820;48.738;9.092;2023-04-28T07:43:24;5.67;;;3.13;;
23302;SDS011;11820;48.738;9.092;2023-04-28T07:45:49;3.50;;;3.17;;
23302;SDS011;11820;48.738;9.092;2023-04-28T07:48:15;4.20;;;3.50;;
23302;SDS011;11820;48.738;9.092;2023-04-28T07:50:40;4.60;;;3.30;;
23302;SDS011;11820;48.738;9.092;2023-04-28T07:53:06;3.90;;;3.60;;
23302;SDS011;11820;48.738;9.092;2023-04-28T07:55:31;3.77;;;3.40;;
23302;SDS011;11820;48.738;9.092;2023-04-28T07:57:57;4.87;;;4.47;;
23302;SDS011;11820;48.738;9.092;2023-04-28T08:00:22;4.50;;;4.00;;
23302;SDS011;11820;48.738;9.092;2023-04-28T08:02:48;6.23;;;3.90;;
23302;SDS011;11820;48.738;9.092;2023-04-28T08:05:14;4.13;;;3.73;;
23302;SDS011;11820;48.738;9.092;2023-04-28T08:07:40;5.70;;;3.80;;
23302;SDS011;11820;48.738;9.092;2023-04-28T08:10:06;5.13;;;4.07;;
23302;SDS011;11820;48.738;9.092;2023-04-28T08:12:36;4.83;;;3.97;;
23302;SDS011;11820;48.738;9.092;2023-04-28T08:15:02;4.43;;;3.80;;
23302;SDS011;11820;48.738;9.092;2023-04-28T08:17:28;4.90;;;4.50;;
23302;SDS011;11820;48.738;9.092;2023-04-28T08:19:53;5.80;;;4.20;;
23302;SDS011;11820;48.738;9.092;2023-04-28T08:22:18;6.87;;;4.20;;
23302;SDS011;11820;48.738;9.092;2023-04-28T08:24:44;4.43;;;3.97;;
23302;SDS011;11820;48.738;9.092;2023-04-28T08:27:09;4.53;;;4.13;;
23302;SDS011;11820;48.738;9.092;2023-04-28T08:29:34;5.03;;;4.23;;
23302;SDS011;11820;48.738;9.092;2023-04-28T08:32:00;9.27;;;4.93;;
23302;SDS011;11820;48.738;9.092;2023-04-28T08:34:26;5.57;;;4.50;;
23302;SDS011;11820;48.738;9.092;2023-04-28T08:36:52;6.53;;;5.13;;
23302;SDS011;11820;48.738;9.092;2023-04-28T08:39:17;9.17;;;5.07;;
23302;SDS011;11820;48.738;9.092;2023-04-28T08:41:44;5.93;;;4.43;;
23302;SDS011;11820;48.738;9.092;2023-04-28T08:44:10;7.57;;;4.90;;
23302;SDS011;11820;48.738;9.092;2023-04-28T08:46:39;8.00;;;5.17;;
23302;SDS011;11820;48.738;9.092;2023-04-28T08:49:06;8.73;;;5.80;;
23302;SDS011;11820;48.738;9.092;2023-04-28T08:51:37;5.60;;;4.80;;
23302;SDS011;11820;48.738;9.092;2023-04-28T08:54:09;8.20;;;5.23;;
23302;SDS011;11820;48.738;9.092;2023-04-28T08:56:38;5.30;;;4.73;;
23302;SDS011;11820;48.738;9.092;2023-04-28T08:59:03;5.57;;;5.07;;
23302;SDS011;11820;48.738;9.092;2023-04-28T09:01:29;5.33;;;4.70;;
23302;SDS011;11820;48.738;9.092;2023-04-28T09:03:55;6.10;;;5.10;;
23302;SDS011;11820;48.738;9.092;2023-04-28T09:06:21;5.80;;;5.30;;
23302;SDS011;11820;48.738;9.092;2023-04-28T09:08:47;5.60;;;5.10;;
23302;SDS011;11820;48.738;9.092;2023-04-28T09:11:12;6.00;;;5.10;;
23302;SDS011;11820;48.738;9.092;2023-04-28T09:13:39;8.73;;;4.90;;
23302;SDS011;11820;48.738;9.092;2023-04-28T09:16:05;5.67;;;4.50;;
23302;SDS011;11820;48.738;9.092;2023-04-28T09:18:30;4.20;;;3.80;;
23302;SDS011;11820;48.738;9.092;2023-04-28T09:21:07;5.37;;;3.83;;
23302;SDS011;11820;48.738;9.092;2023-04-28T09:23:34;4.87;;;3.90;;
23302;SDS011;11820;48.738;9.092;2023-04-28T09:26:10;3.60;;;3.30;;
23302;SDS011;11820;48.738;9.092;2023-04-28T09:28:35;3.67;;;3.37;;
23302;SDS011;11820;48.738;9.092;2023-04-28T09:31:01;3.87;;;3.47;;
23302;SDS011;11820;48.738;9.092;2023-04-28T09:33:26;4.07;;;3.73;;
23302;SDS011;11820;48.738;9.092;2023-04-28T09:35:52;3.70;;;3.27;;
23302;SDS011;11820;48.738;9.092;2023-04-28T09:38:19;4.23;;;3.70;;
23302;SDS011;11820;48.738;9.092;2023-04-28T09:41:00;3.60;;;3.30;;
23302;SDS011;11820;48.738;9.092;2023-04-28T09:43:28;4.53;;;3.40;;
23302;SDS011;11820;48.738;9.092;2023-04-28T09:45:55;4.10;;;3.27;;
23302;SDS011;11820;48.738;9.092;2023-04-28T09:48:26;3.57;;;3.13;;
23302;SDS011;11820;48.738;9.092;2023-04-28T09:50:53;4.63;;;3.50;;
23302;SDS011;11820;48.738;9.092;2023-04-28T09:53:23;4.70;;;2.93;;
23302;SDS011;11820;48.738;9.092;2023-04-28T09:55:51;3.23;;;2.73;;
23302;SDS011;11820;48.738;9.092;2023-04-28T09:58:20;3.00;;;2.70;;
23302;SDS011;11820;48.738;9.092;2023-04-28T10:00:50;4.43;;;2.37;;
23302;SDS011;11820;48.738;9.092;2023-04-28T10:03:18;2.60;;;2.40;;
23302;SDS011;11820;48.738;9.092;2023-04-28T10:05:49;2.50;;;2.10;;
23302;SDS011;11820;48.738;9.092;2023-04-28T10:08:17;2.40;;;1.63;;
23302;SDS011;11820;48.738;9.092;2023-04-28T10:10:43;1.80;;;1.70;;
23302;SDS011;11820;48.738;9.092;2023-04-28T10:13:10;6.80;;;1.47;;
23302;SDS011;11820;48.738;9.092;2023-04-28T10:15:36;2.40;;;1.40;;
23302;SDS011;11820;48.738;9.092;2023-04-28T10:18:01;1.33;;;1.23;;
23302;SDS011;11820;48.738;9.092;2023-04-28T10:20:29;1.47;;;1.10;;
23302;SDS011;11820;48.738;9.092;2023-04-28T10:23:01;1.13;;;1.03;;
23302;SDS011;11820;48.738;9.092;2023-04-28T10:25:34;1.40;;;0.97;;
23302;SDS011;11820;48.738;9.092;2023-04-28T10:28:05;1.50;;;1.13;;
23302;SDS011;11820;48.738;9.092;2023-04-28T10:30:31;1.03;;;0.77;;
23302;SDS011;11820;48.738;9.092;2023-04-28T10:33:21;0.80;;;0.80;;
23302;SDS011;11820;48.738;9.092;2023-04-28T10:35:47;1.37;;;0.77;;
23302;SDS011;11820;48.738;9.092;2023-04-28T10:38:13;0.80;;;0.60;;
23302;SDS011;11820;48.738;9.092;2023-04-28T10:40:44;0.97;;;0.77;;
23302;SDS011;11820;48.738;9.092;2023-04-28T10:43:10;0.83;;;0.70;;
23302;SDS011;11820;48.738;9.092;2023-04-28T10:56:08;0.60;;;0.60;;
23302;SDS011;11820;48.738;9.092;2023-04-28T10:58:42;2.57;;;0.50;;
23302;SDS011;11820;48.738;9.092;2023-04-28T11:04:23;0.87;;;0.73;;
23302;SDS011;11820;48.738;9.092;2023-04-28T11:06:42;0.53;;;0.40;;
23302;SDS011;11820;48.738;9.092;2023-04-28T11:11:38;0.67;;;0.67;;
23302;SDS011;11820;48.738;9.092;2023-04-28T11:19:26;0.80;;;0.63;;
23302;SDS011;11820;48.738;9.092;2023-04-28T11:21:54;0.37;;;0.37;;
23302;SDS011;11820;48.738;9.092;2023-04-28T11:24:21;0.50;;;0.50;;
23302;SDS011;11820;48.738;9.092;2023-04-28T11:26:49;0.47;;;0.40;;
23302;SDS011;11820;48.738;9.092;2023-04-28T11:29:15;1.10;;;0.53;;
23302;SDS011;11820;48.738;9.092;2023-04-28T11:31:47;2.00;;;0.67;;
23302;SDS011;11820;48.738;9.092;2023-04-28T11:34:17;0.70;;;0.60;;
23302;SDS011;11820;48.738;9.092;2023-04-28T11:36:44;2.67;;;0.50;;
23302;SDS011;11820;48.738;9.092;2023-04-28T11:39:10;0.53;;;0.53;;
23302;SDS011;11820;48.738;9.092;2023-04-28T11:41:37;2.17;;;0.60;;
23302;SDS011;11820;48.738;9.092;2023-04-28T11:44:15;0.40;;;0.40;;
23302;SDS011;11820;48.738;9.092;2023-04-28T11:49:23;0.60;;;0.60;;
23302;SDS011;11820;48.738;9.092;2023-04-28T11:51:49;0.77;;;0.50;;
23302;SDS011;11820;48.738;9.092;2023-04-28T11:54:22;1.03;;;0.50;;
23302;SDS011;11820;48.738;9.092;2023-04-28T11:56:51;0.63;;;0.40;;
23302;SDS011;11820;48.738;9.092;2023-04-28T11:59:17;1.67;;;0.50;;
23302;SDS011;11820;48.738;9.092;2023-04-28T12:01:49;0.77;;;0.50;;
23302;SDS011;11820;48.738;9.092;2023-04-28T12:04:40;1.03;;;0.67;;
23302;SDS011;11820;48.738;9.092;2023-04-28T12:09:37;0.60;;;0.60;;
23302;SDS011;11820;48.738;9.092;2023-04-28T12:12:05;0.90;;;0.50;;
23302;SDS011;11820;48.738;9.092;2023-04-28T12:14:32;0.63;;;0.57;;
23302;SDS011;11820;48.738;9.092;2023-04-28T12:19:56;0.63;;;0.50;;
23302;SDS011;11820;48.738;9.092;2023-04-28T12:22:23;0.53;;;0.53;;
23302;SDS011;11820;48.738;9.092;2023-04-28T12:25:05;0.50;;;0.40;;
23302;SDS011;11820;48.738;9.092;2023-04-28T12:27:32;0.70;;;0.70;;
23302;SDS011;11820;48.738;9.092;2023-04-28T12:29:58;0.53;;;0.47;;
23302;SDS011;11820;48.738;9.092;2023-04-28T12:32:36;0.77;;;0.50;;
23302;SDS011;11820;48.738;9.092;2023-04-28T12:35:03;2.70;;;0.50;;
23302;SDS011;11820;48.738;9.092;2023-04-28T12:37:30;1.83;;;0.50;;
23302;SDS011;11820;48.738;9.092;2023-04-28T12:39:55;1.60;;;0.63;;
23302;SDS011;11820;48.738;9.092;2023-04-28T12:42:21;0.60;;;0.53;;
23302;SDS011;11820;48.738;9.092;2023-04-28T12:44:47;1.43;;;0.80;;
23302;SDS011;11820;48.738;9.092;2023-04-28T12:47:13;0.50;;;0.43;;
23302;SDS011;11820;48.738;9.092;2023-04-28T12:49:39;1.07;;;0.50;;
23302;SDS011;11820;48.738;9.092;2023-04-28T12:52:05;0.53;;;0.53;;
23302;SDS011;11820;48.738;9.092;2023-04-28T12:54:30;1.67;;;0.60;;
23302;SDS011;11820;48.738;9.092;2023-04-28T12:56:56;0.40;;;0.40;;
23302;SDS011;11820;48.738;9.092;2023-04-28T12:59:21;0.47;;;0.47;;
23302;SDS011;11820;48.738;9.092;2023-04-28T13:01:47;0.50;;;0.50;;
23302;SDS011;11820;48.738;9.092;2023-04-28T13:04:13;2.33;;;0.60;;
23302;SDS011;11820;48.738;9.092;2023-04-28T13:06:39;0.60;;;0.60;;
23302;SDS011;11820;48.738;9.092;2023-04-28T13:09:09;0.70;;;0.70;;
23302;SDS011;11820;48.738;9.092;2023-04-28T13:11:35;1.10;;;0.60;;
23302;SDS011;11820;48.738;9.092;2023-04-28T13:14:01;0.50;;;0.50;;
23302;SDS011;11820;48.738;9.092;2023-04-28T13:16:27;0.60;;;0.60;;
23302;SDS011;11820;48.738;9.092;2023-04-28T13:18:54;0.87;;;0.87;;
23302;SDS011;11820;48.738;9.092;2023-04-28T13:21:21;0.47;;;0.47;;
23302;SDS011;11820;48.738;9.092;2023-04-28T13:23:48;1.00;;;0.60;;
23302;SDS011;11820;48.738;9.092;2023-04-28T13:26:13;0.80;;;0.70;;
23302;SDS011;11820;48.738;9.092;2023-04-28T13:28:39;0.77;;;0.57;;
23302;SDS011;11820;48.738;9.092;2023-04-28T13:31:04;1.20;;;0.53;;
23302;SDS011;11820;48.738;9.092;2023-04-28T13:33:30;2.37;;;0.67;;
23302;SDS011;11820;48.738;9.092;2023-04-28T13:35:58;0.60;;;0.40;;
23302;SDS011;11820;48.738;9.092;2023-04-28T13:38:24;0.97;;;0.57;;
23302;SDS011;11820;48.738;9.092;2023-04-28T13:40:50;0.73;;;0.47;;
23302;SDS011;11820;48.738;9.092;2023-04-28T13:43:16;0.63;;;0.57;;
23302;SDS011;11820;48.738;9.092;2023-04-28T13:45:41;0.60;;;0.60;;
23302;SDS011;11820;48.738;9.092;2023-04-28T13:48:06;1.50;;;0.57;;
23302;SDS011;11820;48.738;9.092;2023-04-28T13:50:32;0.60;;;0.60;;
23302;SDS011;11820;48.738;9.092;2023-04-28T13:52:57;0.40;;;0.40;;
23302;SDS011;11820;48.738;9.092;2023-04-28T13:55:23;0.93;;;0.70;;
23302;SDS011;11820;48.738;9.092;2023-04-28T13:57:52;1.03;;;0.40;;
23302;SDS011;11820;48.738;9.092;2023-04-28T14:00:18;0.47;;;0.47;;
23302;SDS011;11820;48.738;9.092;2023-04-28T14:02:44;0.73;;;0.47;;
23302;SDS011;11820;48.738;9.092;2023-04-28T14:05:10;1.80;;;0.77;;
23302;SDS011;11820;48.738;9.092;2023-04-28T14:07:35;0.40;;;0.40;;
23302;SDS011;11820;48.738;9.092;2023-04-28T14:10:02;1.63;;;0.50;;
23302;SDS011;11820;48.738;9.092;2023-04-28T14:12:28;0.97;;;0.50;;
23302;SDS011;11820;48.738;9.092;2023-04-28T14:14:54;2.10;;;0.57;;
23302;SDS011;11820;48.738;9.092;2023-04-28T14:17:19;0.40;;;0.40;;
23302;SDS011;11820;48.738;9.092;2023-04-28T14:19:44;1.40;;;0.70;;
23302;SDS011;11820;48.738;9.092;2023-04-28T14:22:10;1.40;;;0.57;;
23302;SDS011;11820;48.738;9.092;2023-04-28T14:24:35;1.00;;;0.47;;
23302;SDS011;11820;48.738;9.092;2023-04-28T14:27:01;0.40;;;0.40;;
23302;SDS011;11820;48.738;9.092;2023-04-28T14:29:26;0.50;;;0.50;;
23302;SDS011;11820;48.738;9.092;2023-04-28T14:31:51;0.73;;;0.50;;
23302;SDS011;11820;48.738;9.092;2023-04-28T14:34:17;0.70;;;0.50;;
23302;SDS011;11820;48.738;9.092;2023-04-28T14:36:42;1.30;;;0.90;;
23302;SDS011;11820;48.738;9.092;2023-04-28T14:39:07;0.60;;;0.60;;
23302;SDS011;11820;48.738;9.092;2023-04-28T14:41:33;4.07;;;0.83;;
23302;SDS011;11820;48.738;9.092;2023-04-28T14:43:58;1.23;;;0.80;;
23302;SDS011;11820;48.738;9.092;2023-04-28T14:46:23;2.43;;;0.60;;
23302;SDS011;11820;48.738;9.092;2023-04-28T14:48:49;1.63;;;0.80;;
23302;SDS011;11820;48.738;9.092;2023-04-28T14:51:15;0.60;;;0.43;;
23302;SDS011;11820;48.738;9.092;2023-04-28T14:53:40;1.53;;;0.73;;
23302;SDS011;11820;48.738;9.092;2023-04-28T14:56:06;2.33;;;0.60;;
23302;SDS011;11820;48.738;9.092;2023-04-28T14:58:31;3.27;;;0.50;;
23302;SDS011;11820;48.738;9.092;2023-04-28T15:00:57;1.47;;;0.97;;
23302;SDS011;11820;48.738;9.092;2023-04-28T15:03:22;1.00;;;0.60;;
23302;SDS011;11820;48.738;9.092;2023-04-28T15:05:47;0.60;;;0.60;;
23302;SDS011;11820;48.738;9.092;2023-04-28T15:08:13;2.30;;;0.40;;
23302;SDS011;11820;48.738;9.092;2023-04-28T15:10:38;2.93;;;0.87;;
23302;SDS011;11820;48.738;9.092;2023-04-28T15:13:05;0.60;;;0.60;;